Chamois, MO

12:29 AM CDT on September 21, 2014 (GMT -0500)
5 miles S of Fulton | Change Station
CLOSE
Current Station
Personal Weather Station
Location: Fulton, MO
Elevation: 787 ft
Nearby Weather Stations

Elev 787 ft 38.75 °N, 91.97 °W | Updated 9 seconds ago

Partly Cloudy
Partly Cloudy
73.2 °F
Feels Like 72 °F
N
2.3
Wind Variable Wind from WNW
Gusts 2.3 mph

Today
High -- | Low -- °F
--% Chance of Precip.
Yesterday
High -- | Low -- °F
Precip. -- in
6:53 AM 7:05 PM
Waning Crescent, 8% visible
Pressure 29.91 in
Visibility 7.0 miles
Clouds Overcast 8000 ft
Heat Index 72 °F
Dew Point 70 °F
Humidity 88%
Rainfall 0.00 in
Snow Depth Not available.
UV 0.0 out of 12
Pollen 6.80 out of 12
Air Quality Not available.
Flu Activity Not available.
METAR KJEF 210353Z AUTO 00000KT 7SM OVC080 23/21 A2994 RMK AO2 SLP126 T02280206

More Conditions Fewer Conditions

Pressure 29.91 in
Visibility 7.0 miles
Clouds Overcast 8000 ft
Heat Index 72 °F
Dew Point 70 °F
Humidity 88%
Rainfall 0.00 in
Snow Depth Not available.
UV 0.0 out of 12
Pollen 6.80 out of 12
Air Quality Not available.
Flu Activity Not available.
METAR KJEF 210353Z AUTO 00000KT 7SM OVC080 23/21 A2994 RMK AO2 SLP126 T02280206

More Conditions Fewer Conditions

10-Day Weather Forecast

Almanac

Astronomy

Sep. 21, 2014 Rise Set
Actual Time 6:53 AM CDT 7:05 PM CDT
Civil Twilight 6:27 AM CDT 7:32 PM CDT
Nautical Twilight 5:56 AM CDT 8:03 PM CDT
Astronomical Twilight 5:24 AM CDT 8:34 PM CDT
Moon 4:29 AM CDT 5:41 PM CDT
Length of Visible Light 13h 04m
Length of Day
12h 11m
Tomorrow will be 2m 30s shorter.
Waning Crescent, 8% of the Moon is Illuminated
Today
Waning Crescent
Sep 24
New
Oct 1
First Quarter
Oct 8
Full
Oct 15
Last Quarter

Today's Extremes

State Highs State Lows

Community

WunderPhotos

Upload Photos

1,755,090 photos uploaded!

Nearby

Snow Depth

Station Depth Elevation
No new snow has been reported.

Earthquake Activity

City Distance Mag. Time & Date
No recent earthquake activity has been reported nearby.
Minimum magnitude displayed is 2.5.

Coastal Water Temperatures

Place Temperature
No Stations Reporting

Nearby Weather Stations